Time;durP1;ratioP1;P1;durP2;ratioP2;P2;SDS_P1;SDS_P2;PMS_P1;PMS_P2;Temp;Humidity;BMP_temperature;BMP_pressure;BME280_temperature;BME280_humidity;BME280_pressure;Samples;Min_cycle;Max_cycle;Signal;HPM_P1;HPM_P2
2023/01/06 00:02:18;;;;;;;;;0.00;0.00;;;;;-146.50;100.00;59256.41;5070755;28;45650;-72
2023/01/06 00:04:43;;;;;;;;;0.67;0.67;;;;;-146.50;100.00;59256.41;5072445;28;45590;-75
2023/01/06 00:07:09;;;;;;;;;0.00;0.00;;;;;-146.50;100.00;59256.41;5072374;28;45460;-75
2023/01/06 00:09:34;;;;;;;;;0.00;0.00;;;;;-146.50;100.00;59256.41;5072003;27;46023;-75
2023/01/06 00:12:00;;;;;;;;;0.00;0.00;;;;;-146.50;100.00;59256.41;5072202;27;45417;-75
2023/01/06 00:14:25;;;;;;;;;0.00;0.00;;;;;-146.50;100.00;59256.41;5071229;28;45546;-75
2023/01/06 00:16:50;;;;;;;;;0.00;0.00;;;;;-146.50;100.00;59256.41;5069283;28;45410;-75
2023/01/06 00:19:16;;;;;;;;;0.00;0.00;;;;;-146.50;100.00;59256.41;5071792;27;45473;-75
2023/01/06 00:21:41;;;;;;;;;2.00;0.00;;;;;-146.50;100.00;59256.41;5071978;28;45501;-75
2023/01/06 00:24:08;;;;;;;;;1.00;0.00;;;;;-146.50;100.00;59256.41;5072218;27;45360;-75
2023/01/06 00:26:33;;;;;;;;;0.00;0.00;;;;;-146.50;100.00;59256.41;5072129;28;45346;-75
2023/01/06 00:28:58;;;;;;;;;0.67;0.00;;;;;-146.50;100.00;59256.41;5072713;27;45441;-75
2023/01/06 00:31:24;;;;;;;;;0.00;0.00;;;;;-146.50;100.00;59256.41;5073328;27;45401;-75
2023/01/06 00:33:49;;;;;;;;;0.00;0.00;;;;;-146.50;100.00;59256.41;5077435;27;45773;-75
2023/01/06 00:36:15;;;;;;;;;0.00;0.00;;;;;-146.50;100.00;59256.41;5077068;28;45680;-75
2023/01/06 00:38:41;;;;;;;;;1.00;1.00;;;;;-146.50;100.00;59256.41;5076623;27;46379;-75
2023/01/06 00:43:53;;;;;;;;;1.00;0.00;;;;;-146.50;100.00;59256.41;5076520;28;45284;-75
2023/01/06 00:46:18;;;;;;;;;1.00;1.00;;;;;-146.50;100.00;59256.41;5076875;28;45449;-74
2023/01/06 00:48:43;;;;;;;;;1.00;0.25;;;;;-146.50;100.00;59256.41;5076746;27;46246;-75
2023/01/06 00:51:09;;;;;;;;;0.00;0.00;;;;;-146.50;100.00;59256.41;5076162;27;45383;-75
2023/01/06 00:53:34;;;;;;;;;0.00;0.00;;;;;-146.50;100.00;59256.41;5076431;27;45334;-75
2023/01/06 00:56:01;;;;;;;;;0.00;0.00;;;;;-146.50;100.00;59256.41;5076409;27;45481;-75
2023/01/06 00:58:30;;;;;;;;;0.00;0.00;;;;;-146.50;100.00;59256.41;5076034;27;47451;-74
2023/01/06 01:00:56;;;;;;;;;0.00;0.00;;;;;-146.50;100.00;59256.41;5076160;28;45431;-73
2023/01/06 01:03:21;;;;;;;;;1.00;1.00;;;;;-146.50;100.00;59256.41;5076683;27;46105;-73
2023/01/06 01:05:47;;;;;;;;;1.00;1.00;;;;;-146.50;100.00;59256.41;5075938;27;45472;-73
2023/01/06 01:08:12;;;;;;;;;0.50;0.00;;;;;-146.50;100.00;59256.41;5074776;28;45421;-74
2023/01/06 01:10:37;;;;;;;;;0.00;0.00;;;;;-146.50;100.00;59256.41;5074226;28;45507;-73
2023/01/06 01:13:03;;;;;;;;;0.00;0.00;;;;;-146.50;100.00;59256.41;5075004;28;45402;-73
2023/01/06 01:15:28;;;;;;;;;0.00;0.00;;;;;-146.50;100.00;59256.41;5076164;27;45564;-74
2023/01/06 01:17:53;;;;;;;;;0.00;0.00;;;;;-146.50;100.00;59256.41;5076493;27;45511;-74
2023/01/06 01:20:19;;;;;;;;;0.00;0.00;;;;;-146.50;100.00;59256.41;5076067;28;45428;-73
2023/01/06 01:22:44;;;;;;;;;0.00;0.00;;;;;-146.50;100.00;59256.41;5075728;28;45466;-74
2023/01/06 01:25:09;;;;;;;;;0.75;0.00;;;;;-146.50;100.00;59256.41;5074927;27;45827;-74
2023/01/06 01:27:35;;;;;;;;;0.00;0.00;;;;;-146.50;100.00;59256.41;5076013;27;46100;-74
2023/01/06 01:30:00;;;;;;;;;0.00;0.00;;;;;-146.50;100.00;59256.41;5076029;27;45292;-74
2023/01/06 01:32:26;;;;;;;;;0.00;0.00;;;;;-146.50;100.00;59256.41;5076478;27;45312;-73
2023/01/06 01:34:51;;;;;;;;;0.00;0.00;;;;;-146.50;100.00;59256.41;5076074;27;45290;-74
2023/01/06 01:37:16;;;;;;;;;0.00;0.00;;;;;-146.50;100.00;59256.41;5075877;28;46324;-74
2023/01/06 01:39:42;;;;;;;;;0.00;0.00;;;;;-146.50;100.00;59256.41;5076644;27;45453;-74
2023/01/06 01:42:15;;;;;;;;;0.00;0.00;;;;;-146.50;100.00;59256.41;5058237;28;45430;-73
2023/01/06 01:44:53;;;;;;;;;0.00;0.00;;;;;-146.50;100.00;59256.41;5077205;27;45306;-74
2023/01/06 01:47:37;;;;;;;;;0.00;0.00;;;;;-146.50;100.00;59256.41;5076179;27;46316;-74
2023/01/06 01:50:31;;;;;;;;;0.00;0.00;;;;;-146.50;100.00;59256.41;5075808;28;45362;-74
2023/01/06 01:53:11;;;;;;;;;0.00;0.00;;;;;-146.50;100.00;59256.41;5066764;28;45503;-73
2023/01/06 01:55:38;;;;;;;;;0.00;0.00;;;;;-146.50;100.00;59256.41;5075896;27;45481;-74
2023/01/06 01:58:17;;;;;;;;;0.00;0.00;;;;;-146.50;100.00;59256.41;5075242;27;45390;-74
2023/01/06 02:00:43;;;;;;;;;1.00;1.00;;;;;-146.50;100.00;59256.41;5074791;27;45445;-74
2023/01/06 02:03:10;;;;;;;;;2.00;0.00;;;;;-146.50;100.00;59256.41;5075366;27;45383;-74
2023/01/06 02:05:40;;;;;;;;;1.00;0.00;;;;;-146.50;100.00;59256.41;5074839;27;45355;-75
2023/01/06 02:08:13;;;;;;;;;0.50;0.50;;;;;-146.50;100.00;59256.41;5074723;28;46693;-74
2023/01/06 02:10:38;;;;;;;;;0.00;0.00;;;;;-146.50;100.00;59256.41;5075277;27;45303;-74
2023/01/06 02:13:04;;;;;;;;;0.00;0.00;;;;;-146.50;100.00;59256.41;5075684;27;45327;-74
2023/01/06 02:15:31;;;;;;;;;0.00;0.00;;;;;-146.50;100.00;59256.41;5074839;27;45385;-73
2023/01/06 02:18:00;;;;;;;;;0.00;0.00;;;;;-146.50;100.00;59256.41;5075380;28;45739;-74
2023/01/06 02:20:39;;;;;;;;;0.00;0.00;;;;;-146.50;100.00;59256.41;5073452;28;45452;-74
2023/01/06 02:23:32;;;;;;;;;1.00;0.00;;;;;-146.50;100.00;59256.41;5075010;28;45377;-74
2023/01/06 02:26:26;;;;;;;;;1.00;0.00;;;;;-146.50;100.00;59256.41;5075153;28;45325;-74
2023/01/06 02:29:15;;;;;;;;;0.33;0.00;;;;;-146.50;100.00;59256.41;5075069;27;46355;-74
2023/01/06 02:32:07;;;;;;;;;0.00;0.00;;;;;-146.50;100.00;59256.41;5074707;27;45442;-73
2023/01/06 02:34:32;;;;;;;;;0.67;0.00;;;;;-146.50;100.00;59256.41;5011855;28;45397;-74
2023/01/06 02:36:57;;;;;;;;;0.00;0.00;;;;;-146.50;100.00;59256.41;4995354;28;45418;-73
2023/01/06 02:39:31;;;;;;;;;0.00;0.00;;;;;-146.50;100.00;59256.41;5011096;28;45990;-74
2023/01/06 02:42:00;;;;;;;;;0.00;0.00;;;;;-146.50;100.00;59256.41;5012280;28;45445;-74
2023/01/06 02:44:45;;;;;;;;;0.00;0.00;;;;;-146.50;100.00;59256.41;5012469;28;45485;-74
2023/01/06 02:47:22;;;;;;;;;0.00;0.00;;;;;-146.50;100.00;59256.41;5011158;28;45526;-74
2023/01/06 02:49:56;;;;;;;;;1.00;0.00;;;;;-146.50;100.00;59256.41;4994813;28;46457;-74
2023/01/06 02:52:24;;;;;;;;;0.00;0.00;;;;;-146.50;100.00;59256.41;4995810;28;45480;-74
2023/01/06 02:55:15;;;;;;;;;0.00;0.00;;;;;-146.50;100.00;59256.41;5010868;28;45625;-74
2023/01/06 02:57:47;;;;;;;;;0.00;0.00;;;;;-146.50;100.00;59256.41;5011724;28;45679;-74
2023/01/06 03:00:13;;;;;;;;;0.00;0.00;;;;;-146.50;100.00;59256.41;5011703;28;45919;-73
2023/01/06 03:02:40;;;;;;;;;0.00;0.00;;;;;-146.50;100.00;59256.41;5011825;28;45403;-74
2023/01/06 03:05:10;;;;;;;;;0.00;0.00;;;;;-146.50;100.00;59256.41;5011334;28;45400;-74
2023/01/06 03:07:38;;;;;;;;;1.00;0.00;;;;;-146.50;100.00;59256.41;5011782;28;45470;-76
2023/01/06 03:10:04;;;;;;;;;0.00;0.00;;;;;-146.50;100.00;59256.41;5011267;28;46096;-73
2023/01/06 03:12:37;;;;;;;;;0.00;0.00;;;;;-146.50;100.00;59256.41;5072395;28;45541;-73
2023/01/06 03:15:04;;;;;;;;;0.00;0.00;;;;;-146.50;100.00;59256.41;5074379;27;45401;-74
2023/01/06 03:17:29;;;;;;;;;0.67;0.00;;;;;-146.50;100.00;59256.41;5074323;28;45530;-73
2023/01/06 03:19:55;;;;;;;;;0.00;0.00;;;;;-146.50;100.00;59256.41;5089484;27;46943;-74
2023/01/06 03:22:22;;;;;;;;;0.00;0.00;;;;;-146.50;100.00;59256.41;5073819;27;45467;-74
2023/01/06 03:24:48;;;;;;;;;0.00;0.00;;;;;-146.50;100.00;59256.41;5073743;27;45421;-73
2023/01/06 03:27:16;;;;;;;;;0.00;0.00;;;;;-146.50;100.00;59256.41;5074529;27;45359;-74
2023/01/06 03:29:42;;;;;;;;;0.00;0.00;;;;;-146.50;100.00;59256.41;5074168;27;46009;-73
2023/01/06 03:32:22;;;;;;;;;0.00;0.00;;;;;-146.50;100.00;59256.41;5072324;28;45812;-73
2023/01/06 03:34:54;;;;;;;;;0.00;0.00;;;;;-146.50;100.00;59256.41;5074547;27;45424;-73
2023/01/06 03:37:39;;;;;;;;;1.00;0.00;;;;;-146.50;100.00;59256.41;5073164;28;45449;-73
2023/01/06 03:40:17;;;;;;;;;0.00;0.00;;;;;-146.50;100.00;59256.41;5073272;27;45415;-74
2023/01/06 03:43:10;;;;;;;;;0.00;0.00;;;;;-146.50;100.00;59256.41;5053688;28;45408;-73
2023/01/06 03:45:56;;;;;;;;;0.00;0.00;;;;;-146.50;100.00;59256.41;5054238;28;45513;-73
2023/01/06 03:48:46;;;;;;;;;0.00;0.00;;;;;-146.50;100.00;59256.41;5073241;27;45427;-73
2023/01/06 03:51:49;;;;;;;;;0.00;0.00;;;;;-146.50;100.00;59256.41;5071943;28;46907;-75
2023/01/06 03:54:36;;;;;;;;;0.00;0.00;;;;;-146.50;100.00;59256.41;5073530;27;45488;-73
2023/01/06 03:57:15;;;;;;;;;0.00;0.00;;;;;-146.50;100.00;59256.41;5073609;27;45456;-73
2023/01/06 03:59:46;;;;;;;;;0.00;0.00;;;;;-146.50;100.00;59256.41;5071605;27;45314;-73
2023/01/06 04:02:12;;;;;;;;;0.00;0.00;;;;;-146.50;100.00;59256.41;5072615;28;47337;-73
2023/01/06 04:04:38;;;;;;;;;1.00;1.00;;;;;-146.50;100.00;59256.41;5072414;28;45375;-73
2023/01/06 04:07:04;;;;;;;;;0.67;0.00;;;;;-146.50;100.00;59256.41;5072549;27;45893;-75
2023/01/06 04:09:29;;;;;;;;;0.33;0.00;;;;;-146.50;100.00;59256.41;5072940;27;45409;-75
2023/01/06 04:14:38;;;;;;;;;0.00;0.00;;;;;-146.50;100.00;59256.41;5072375;28;45458;-76
2023/01/06 04:17:04;;;;;;;;;2.00;0.33;;;;;-146.50;100.00;59256.41;5072952;27;45411;-76
2023/01/06 04:19:29;;;;;;;;;0.00;0.00;;;;;-146.50;100.00;59256.41;5072903;28;45357;-75
2023/01/06 04:21:55;;;;;;;;;0.00;0.00;;;;;-146.50;100.00;59256.41;5055438;28;47430;-76
2023/01/06 04:24:20;;;;;;;;;0.00;0.00;;;;;-146.50;100.00;59256.41;5073037;27;45254;-75
2023/01/06 04:26:45;;;;;;;;;0.25;0.25;;;;;-146.50;100.00;59256.41;5071289;27;45788;-75
2023/01/06 04:29:11;;;;;;;;;0.00;0.00;;;;;-146.50;100.00;59256.41;5073546;28;45361;-75
2023/01/06 04:31:36;;;;;;;;;1.00;1.00;;;;;-146.50;100.00;59256.41;5072916;28;45524;-76
2023/01/06 04:34:02;;;;;;;;;0.00;0.00;;;;;-146.50;100.00;59256.41;5072379;28;45436;-76
2023/01/06 04:36:27;;;;;;;;;0.00;0.00;;;;;-146.50;100.00;59256.41;5073742;28;45350;-76
2023/01/06 04:38:52;;;;;;;;;0.67;0.00;;;;;-146.50;100.00;59256.41;5073371;28;45742;-75
2023/01/06 04:41:18;;;;;;;;;0.00;0.00;;;;;-146.50;100.00;59256.41;5073569;28;45704;-76
2023/01/06 04:43:43;;;;;;;;;0.00;0.00;;;;;-146.50;100.00;59256.41;5073066;28;45393;-76
2023/01/06 04:46:08;;;;;;;;;0.00;0.00;;;;;-146.50;100.00;59256.41;5073357;27;45335;-75
2023/01/06 04:48:33;;;;;;;;;0.00;0.00;;;;;-146.50;100.00;59256.41;5073575;27;45330;-75
2023/01/06 04:51:03;;;;;;;;;0.00;0.00;;;;;-146.50;100.00;59256.41;5073621;27;45903;-75
2023/01/06 04:53:29;;;;;;;;;0.00;0.00;;;;;-146.50;100.00;59256.41;5073778;27;45366;-75
2023/01/06 04:55:54;;;;;;;;;0.00;0.00;;;;;-146.50;100.00;59256.41;5072730;28;45384;-75
2023/01/06 04:58:19;;;;;;;;;0.00;0.00;;;;;-146.50;100.00;59256.41;5073933;27;45369;-75
2023/01/06 05:00:45;;;;;;;;;0.00;0.00;;;;;-146.50;100.00;59256.41;5072451;27;47064;-75
2023/01/06 05:03:10;;;;;;;;;0.00;0.00;;;;;-146.50;100.00;59256.41;5072897;27;45470;-75
2023/01/06 05:05:37;;;;;;;;;0.00;0.00;;;;;-146.50;100.00;59256.41;5073729;27;45525;-73
2023/01/06 05:08:02;;;;;;;;;2.00;0.00;;;;;-146.50;100.00;59256.41;5073115;28;45625;-76
2023/01/06 05:10:28;;;;;;;;;0.00;0.00;;;;;-146.50;100.00;59256.41;5072645;27;45961;-76
2023/01/06 05:12:53;;;;;;;;;0.00;0.00;;;;;-146.50;100.00;59256.41;5073277;27;45439;-75
2023/01/06 05:15:18;;;;;;;;;0.00;0.00;;;;;-146.50;100.00;59256.41;5072137;27;45397;-76
2023/01/06 05:17:44;;;;;;;;;0.00;0.00;;;;;-146.50;100.00;59256.41;5073988;27;45361;-76
2023/01/06 05:20:09;;;;;;;;;0.00;0.00;;;;;-146.50;100.00;59256.41;5075843;27;47276;-75
2023/01/06 05:22:34;;;;;;;;;0.00;0.00;;;;;-146.50;100.00;59256.41;5076142;27;45680;-75
2023/01/06 05:25:00;;;;;;;;;1.00;0.00;;;;;-146.50;100.00;59256.41;5076484;28;45620;-75
2023/01/06 05:27:25;;;;;;;;;0.00;0.00;;;;;-146.50;100.00;59256.41;5076144;28;45465;-75
2023/01/06 05:29:51;;;;;;;;;0.00;0.00;;;;;-146.50;100.00;59256.41;5075940;27;46363;-76
2023/01/06 05:32:16;;;;;;;;;1.00;0.00;;;;;-146.50;100.00;59256.41;5075911;27;45439;-76
2023/01/06 05:34:41;;;;;;;;;0.00;0.00;;;;;-146.50;100.00;59256.41;5074983;28;45571;-76
2023/01/06 05:37:07;;;;;;;;;0.00;0.00;;;;;-146.50;100.00;59256.41;5076344;27;45386;-76
2023/01/06 05:39:32;;;;;;;;;1.00;1.00;;;;;-146.50;100.00;59256.41;5074957;28;46200;-75
2023/01/06 05:41:57;;;;;;;;;0.00;0.00;;;;;-146.50;100.00;59256.41;5076004;27;45799;-75
2023/01/06 05:44:23;;;;;;;;;1.00;1.00;;;;;-146.50;100.00;59256.41;5075674;27;45544;-76
2023/01/06 05:46:48;;;;;;;;;0.00;0.00;;;;;-146.50;100.00;59256.41;5075262;27;45398;-76
2023/01/06 05:49:14;;;;;;;;;0.00;0.00;;;;;-146.50;100.00;59256.41;5075568;27;45986;-75
2023/01/06 05:51:39;;;;;;;;;2.25;1.00;;;;;-146.50;100.00;59256.41;5069895;27;45432;-75
2023/01/06 05:54:07;;;;;;;;;1.00;0.00;;;;;-146.50;100.00;59256.41;5071632;28;45644;-76
2023/01/06 05:56:33;;;;;;;;;0.00;0.00;;;;;-146.50;100.00;59256.41;5075468;28;45457;-76
2023/01/06 05:58:58;;;;;;;;;0.00;0.00;;;;;-146.50;100.00;59256.41;5075390;28;46629;-75
2023/01/06 06:01:30;;;;;;;;;0.00;0.00;;;;;-146.50;100.00;59256.41;5071980;27;45468;-75
2023/01/06 06:03:55;;;;;;;;;0.00;0.00;;;;;-146.50;100.00;59256.41;5064714;27;45331;-74
2023/01/06 06:06:23;;;;;;;;;0.25;0.25;;;;;-146.50;100.00;59256.41;5069349;28;45410;-75
2023/01/06 06:08:49;;;;;;;;;0.00;0.00;;;;;-146.50;100.00;59256.41;5091418;27;46817;-75
2023/01/06 06:11:16;;;;;;;;;0.00;0.00;;;;;-146.50;100.00;59256.41;5074545;28;45500;-74
2023/01/06 06:13:50;;;;;;;;;0.00;0.00;;;;;-146.50;100.00;59256.41;5074348;27;45550;-75
2023/01/06 06:16:17;;;;;;;;;0.00;0.00;;;;;-146.50;100.00;59256.41;5072068;28;45424;-75
2023/01/06 06:18:43;;;;;;;;;0.00;0.00;;;;;-146.50;100.00;59256.41;5075220;28;46082;-75
2023/01/06 06:21:11;;;;;;;;;1.00;1.00;;;;;-146.50;100.00;59256.41;5075514;28;45506;-75
2023/01/06 06:23:37;;;;;;;;;0.00;0.00;;;;;-146.50;100.00;59256.41;5075711;27;45451;-75
2023/01/06 06:26:03;;;;;;;;;0.50;0.00;;;;;-146.50;100.00;59256.41;5074739;28;45501;-75
2023/01/06 06:28:33;;;;;;;;;0.00;0.00;;;;;-146.50;100.00;59256.41;5073710;27;45389;-75
2023/01/06 06:31:10;;;;;;;;;0.00;0.00;;;;;-146.50;100.00;59256.41;5074734;28;45429;-75
2023/01/06 06:33:36;;;;;;;;;0.00;0.00;;;;;-146.50;100.00;59256.41;5075274;27;45374;-75
2023/01/06 06:36:02;;;;;;;;;0.00;0.00;;;;;-146.50;100.00;59256.41;5075464;28;45479;-73
2023/01/06 06:38:28;;;;;;;;;0.00;0.00;;;;;-146.50;100.00;59256.41;5073883;27;48649;-75
2023/01/06 06:40:53;;;;;;;;;0.00;0.00;;;;;-146.50;100.00;59256.41;5074846;27;45627;-75
2023/01/06 06:43:19;;;;;;;;;1.00;0.00;;;;;-146.50;100.00;59256.41;5056105;28;45461;-75
2023/01/06 06:45:45;;;;;;;;;1.00;1.00;;;;;-146.50;100.00;59256.41;5070620;28;45397;-76
2023/01/06 06:48:10;;;;;;;;;1.00;0.00;;;;;-146.50;100.00;59256.41;5054385;28;46590;-74
2023/01/06 06:50:36;;;;;;;;;0.00;0.00;;;;;-146.50;100.00;59256.41;5065463;28;45529;-75
2023/01/06 06:53:01;;;;;;;;;0.00;0.00;;;;;-146.50;100.00;59256.41;5073664;28;45418;-75
2023/01/06 06:55:27;;;;;;;;;1.00;0.00;;;;;-146.50;100.00;59256.41;5074495;27;45549;-73
2023/01/06 06:57:52;;;;;;;;;0.00;0.00;;;;;-146.50;100.00;59256.41;5067555;27;46330;-75
2023/01/06 07:00:17;;;;;;;;;0.00;0.00;;;;;-146.50;100.00;59256.41;5073523;27;45384;-75
2023/01/06 07:02:47;;;;;;;;;1.00;0.00;;;;;-146.50;100.00;59256.41;5072477;28;45786;-75
2023/01/06 07:05:13;;;;;;;;;2.00;1.25;;;;;-146.50;100.00;59256.41;5074743;27;45417;-75
2023/01/06 07:07:38;;;;;;;;;0.00;0.00;;;;;-146.50;100.00;59256.41;5073025;28;47473;-75
2023/01/06 07:10:04;;;;;;;;;0.00;0.00;;;;;-146.50;100.00;59256.41;5074171;27;45389;-75
2023/01/06 07:12:29;;;;;;;;;0.00;0.00;;;;;-146.50;100.00;59256.41;5075052;27;45380;-75
2023/01/06 07:14:55;;;;;;;;;0.00;0.00;;;;;-146.50;100.00;59256.41;5074618;27;45345;-75
2023/01/06 07:17:25;;;;;;;;;0.00;0.00;;;;;-146.50;100.00;59256.41;5074947;27;45941;-75
2023/01/06 07:19:51;;;;;;;;;1.00;0.00;;;;;-146.50;100.00;59256.41;5074729;28;45564;-75
2023/01/06 07:22:16;;;;;;;;;0.00;0.00;;;;;-146.50;100.00;59256.41;5074711;28;45470;-75
2023/01/06 07:24:41;;;;;;;;;2.00;1.00;;;;;-146.50;100.00;59256.41;5074299;28;45345;-75
2023/01/06 07:27:07;;;;;;;;;2.00;0.00;;;;;-146.50;100.00;59256.41;5073836;28;45397;-72
2023/01/06 07:29:32;;;;;;;;;0.00;0.00;;;;;-146.50;100.00;59256.41;5073155;28;45464;-75
2023/01/06 07:31:58;;;;;;;;;0.00;0.00;;;;;-146.50;100.00;59256.41;5074295;27;45905;-75
2023/01/06 07:34:24;;;;;;;;;0.00;0.00;;;;;-146.50;100.00;59256.41;5074075;27;45378;-75
2023/01/06 07:36:49;;;;;;;;;1.00;1.00;;;;;-146.50;100.00;59256.41;5074228;27;46113;-75
2023/01/06 07:39:14;;;;;;;;;0.00;0.00;;;;;-146.50;100.00;59256.41;5073800;27;45443;-76
2023/01/06 07:41:39;;;;;;;;;0.00;0.00;;;;;-146.50;100.00;59256.41;5072678;28;45385;-75
2023/01/06 07:44:05;;;;;;;;;1.33;0.00;;;;;-146.50;100.00;59256.41;5074508;28;45696;-74
2023/01/06 07:46:30;;;;;;;;;0.00;0.00;;;;;-146.50;100.00;59256.41;5074671;28;46086;-75
2023/01/06 07:48:55;;;;;;;;;1.00;1.00;;;;;-146.50;100.00;59256.41;5073968;28;45456;-75
2023/01/06 07:51:21;;;;;;;;;0.00;0.00;;;;;-146.50;100.00;59256.41;5072878;28;45425;-75
2023/01/06 07:53:46;;;;;;;;;0.67;0.67;;;;;-146.50;100.00;59256.41;5073851;27;45370;-75
2023/01/06 07:56:11;;;;;;;;;1.00;1.00;;;;;-146.50;100.00;59256.41;5075114;27;45921;-75
2023/01/06 07:58:37;;;;;;;;;0.00;0.00;;;;;-146.50;100.00;59256.41;5074601;27;45481;-75
2023/01/06 08:01:07;;;;;;;;;1.00;1.00;;;;;-146.50;100.00;59256.41;5076136;27;45476;-75
2023/01/06 08:03:32;;;;;;;;;1.00;1.00;;;;;-146.50;100.00;59256.41;5076517;27;45564;-74
2023/01/06 08:05:57;;;;;;;;;0.00;0.00;;;;;-146.50;100.00;59256.41;5075581;27;46380;-74
2023/01/06 08:08:23;;;;;;;;;0.00;0.00;;;;;-146.50;100.00;59256.41;5073609;27;45460;-74
2023/01/06 08:10:48;;;;;;;;;0.00;0.00;;;;;-146.50;100.00;59256.41;5073792;27;45459;-75
2023/01/06 08:13:14;;;;;;;;;0.33;0.33;;;;;-146.50;100.00;59256.41;5055674;28;45490;-74
2023/01/06 08:15:39;;;;;;;;;1.00;1.00;;;;;-146.50;100.00;59256.41;5073513;27;45983;-75
2023/01/06 08:18:05;;;;;;;;;0.00;0.00;;;;;-146.50;100.00;59256.41;5055452;28;45357;-74
2023/01/06 08:20:30;;;;;;;;;1.00;1.00;;;;;-146.50;100.00;59256.41;5073911;28;45387;-75
2023/01/06 08:22:57;;;;;;;;;1.00;1.00;;;;;-146.50;100.00;59256.41;5073580;27;45413;-74
2023/01/06 08:25:22;;;;;;;;;0.00;0.00;;;;;-146.50;100.00;59256.41;5073481;28;45551;-75
2023/01/06 08:27:47;;;;;;;;;0.00;0.00;;;;;-146.50;100.00;59256.41;5073612;27;45522;-75
2023/01/06 08:30:13;;;;;;;;;1.00;1.00;;;;;-146.50;100.00;59256.41;5073523;27;45422;-75
2023/01/06 08:32:38;;;;;;;;;0.67;0.67;;;;;-146.50;100.00;59256.41;5073886;27;45467;-75
2023/01/06 08:35:04;;;;;;;;;1.00;1.00;;;;;-146.50;100.00;59256.41;5073534;27;46401;-75
2023/01/06 08:37:29;;;;;;;;;0.00;0.00;;;;;-146.50;100.00;59256.41;5073393;28;45301;-74
2023/01/06 08:39:54;;;;;;;;;1.00;1.00;;;;;-146.50;100.00;59256.41;5073371;27;45873;-75
2023/01/06 08:42:20;;;;;;;;;1.00;1.00;;;;;-146.50;100.00;59256.41;5073834;27;45593;-75
2023/01/06 08:44:46;;;;;;;;;2.33;1.67;;;;;-146.50;100.00;59256.41;5073497;27;45365;-75
2023/01/06 08:47:11;;;;;;;;;2.00;2.00;;;;;-146.50;100.00;59256.41;5073471;27;45396;-75
2023/01/06 08:49:37;;;;;;;;;0.00;0.00;;;;;-146.50;100.00;59256.41;5072058;28;45368;-75
2023/01/06 08:52:03;;;;;;;;;1.00;1.00;;;;;-146.50;100.00;59256.41;5073343;27;45403;-75
2023/01/06 08:54:28;;;;;;;;;1.00;1.00;;;;;-146.50;100.00;59256.41;5076910;27;45468;-74
2023/01/06 08:56:54;;;;;;;;;3.33;1.00;;;;;-146.50;100.00;59256.41;5076765;27;45450;-74
2023/01/06 08:59:20;;;;;;;;;2.67;1.67;;;;;-146.50;100.00;59256.41;5092598;27;45517;-74
2023/01/06 09:01:45;;;;;;;;;0.67;0.00;;;;;-146.50;100.00;59256.41;5076801;27;45495;-74
2023/01/06 09:04:11;;;;;;;;;1.00;1.00;;;;;-146.50;100.00;59256.41;5076839;27;46030;-75
2023/01/06 09:06:38;;;;;;;;;1.00;1.00;;;;;-146.50;100.00;59256.41;5076545;27;45562;-75
2023/01/06 09:09:06;;;;;;;;;0.00;0.00;;;;;-146.50;100.00;59256.41;5076782;27;45460;-75
2023/01/06 09:11:31;;;;;;;;;2.00;0.00;;;;;-146.50;100.00;59256.41;5076820;28;45363;-75
2023/01/06 09:13:57;;;;;;;;;1.00;1.00;;;;;-146.50;100.00;59256.41;5076475;27;47109;-74
2023/01/06 09:16:22;;;;;;;;;0.00;0.00;;;;;-146.50;100.00;59256.41;5076775;27;45396;-74
2023/01/06 09:18:50;;;;;;;;;1.00;1.00;;;;;-146.50;100.00;59256.41;5076893;28;45422;-75
2023/01/06 09:21:18;;;;;;;;;1.00;1.00;;;;;-146.50;100.00;59256.41;5076721;27;45407;-74
2023/01/06 09:23:43;;;;;;;;;1.00;1.00;;;;;-146.50;100.00;59256.41;5076010;27;45353;-74
2023/01/06 09:26:09;;;;;;;;;1.00;1.00;;;;;-146.50;100.00;59256.41;5076197;27;45310;-74
2023/01/06 09:28:34;;;;;;;;;1.50;1.50;;;;;-146.50;100.00;59256.41;5074798;28;45419;-74
2023/01/06 09:31:00;;;;;;;;;0.00;0.00;;;;;-146.50;100.00;59256.41;5076029;27;45468;-74
2023/01/06 09:33:26;;;;;;;;;1.00;1.00;;;;;-146.50;100.00;59256.41;5076169;27;45367;-74
2023/01/06 09:35:51;;;;;;;;;0.00;0.00;;;;;-146.50;100.00;59256.41;5075949;28;45347;-73
2023/01/06 09:38:17;;;;;;;;;0.00;0.00;;;;;-146.50;100.00;59256.41;5075718;27;45602;-75
2023/01/06 09:41:20;;;;;;;;;1.25;1.00;;;;;-146.50;100.00;59256.41;5076157;28;45523;-75
2023/01/06 09:43:55;;;;;;;;;1.00;1.00;;;;;-146.50;100.00;59256.41;5075444;28;46103;-75
2023/01/06 09:46:25;;;;;;;;;0.75;0.75;;;;;-146.50;100.00;59256.41;5076361;27;45426;-75
2023/01/06 09:49:07;;;;;;;;;0.67;0.67;;;;;-146.50;100.00;59256.41;5076003;27;45366;-75
2023/01/06 09:51:34;;;;;;;;;0.00;0.00;;;;;-146.50;100.00;59256.41;5075475;27;45350;-75
2023/01/06 09:54:12;;;;;;;;;1.00;1.00;;;;;-146.50;100.00;59256.41;5075799;27;46386;-73
2023/01/06 09:56:40;;;;;;;;;2.00;2.00;;;;;-146.50;100.00;59256.41;5075014;28;45513;-75
2023/01/06 09:59:15;;;;;;;;;1.33;0.33;;;;;-146.50;100.00;59256.41;5076021;27;45446;-75
2023/01/06 10:01:46;;;;;;;;;1.00;1.00;;;;;-146.50;100.00;59256.41;5075948;27;45437;-75
2023/01/06 10:04:29;;;;;;;;;1.00;1.00;;;;;-146.50;100.00;59256.41;5075237;27;46489;-75
2023/01/06 10:07:19;;;;;;;;;2.00;2.00;;;;;-146.50;100.00;59256.41;5075376;27;45417;-75
2023/01/06 10:09:53;;;;;;;;;2.25;1.00;;;;;-146.50;100.00;59256.41;5074743;28;45303;-75
2023/01/06 10:12:52;;;;;;;;;2.00;2.00;;;;;-146.50;100.00;59256.41;5074732;28;45742;-73
2023/01/06 10:15:34;;;;;;;;;2.67;2.67;;;;;-146.50;100.00;59256.41;5075403;28;45425;-74
2023/01/06 10:18:05;;;;;;;;;2.67;1.00;;;;;-146.50;100.00;59256.41;5074944;28;45448;-73
2023/01/06 10:20:54;;;;;;;;;1.00;1.00;;;;;-146.50;100.00;59256.41;5091243;27;45476;-74
2023/01/06 10:23:42;;;;;;;;;3.00;1.00;;;;;-146.50;100.00;59256.41;5071934;28;45495;-75
2023/01/06 10:26:12;;;;;;;;;3.00;3.00;;;;;-146.50;100.00;59256.41;5075610;27;46224;-73
2023/01/06 10:28:42;;;;;;;;;1.00;1.00;;;;;-146.50;100.00;59256.41;5075301;28;45437;-73
2023/01/06 10:31:13;;;;;;;;;3.00;2.00;;;;;-146.50;100.00;59256.41;5075414;28;45460;-73
2023/01/06 10:33:51;;;;;;;;;1.00;1.00;;;;;-146.50;100.00;59256.41;5075138;27;45479;-74
2023/01/06 10:36:19;;;;;;;;;1.00;1.00;;;;;-146.50;100.00;59256.41;5075189;27;46141;-73
2023/01/06 10:38:51;;;;;;;;;1.33;1.33;;;;;-146.50;100.00;59256.41;5073533;28;45455;-73
2023/01/06 10:41:52;;;;;;;;;3.50;2.00;;;;;-146.50;100.00;59256.41;5075510;27;45429;-73
2023/01/06 10:44:18;;;;;;;;;1.25;1.25;;;;;-146.50;100.00;59256.41;5012076;28;45508;-72
2023/01/06 10:46:46;;;;;;;;;1.00;1.00;;;;;-146.50;100.00;59256.41;5012309;28;45496;-75
2023/01/06 10:49:17;;;;;;;;;1.67;1.67;;;;;-146.50;100.00;59256.41;5011862;28;45404;-74
2023/01/06 10:51:50;;;;;;;;;1.00;1.00;;;;;-146.50;100.00;59256.41;5012153;28;45616;-73
2023/01/06 10:54:26;;;;;;;;;0.33;0.00;;;;;-146.50;100.00;59256.41;5011889;28;45453;-74
2023/01/06 10:57:18;;;;;;;;;2.00;2.00;;;;;-146.50;100.00;59256.41;5012653;28;46296;-74
2023/01/06 11:00:13;;;;;;;;;1.75;1.75;;;;;-146.50;100.00;59256.41;5011728;28;45439;-73
2023/01/06 11:02:56;;;;;;;;;2.75;2.00;;;;;-146.50;100.00;59256.41;5012284;28;45533;-75
2023/01/06 11:05:24;;;;;;;;;1.00;1.00;;;;;-146.50;100.00;59256.41;5012987;28;46280;-73
2023/01/06 11:08:02;;;;;;;;;2.00;1.00;;;;;-146.50;100.00;59256.41;5013085;28;45496;-73
2023/01/06 11:10:36;;;;;;;;;2.33;2.33;;;;;-146.50;100.00;59256.41;5013782;28;45417;-74
2023/01/06 11:13:04;;;;;;;;;3.00;2.00;;;;;-146.50;100.00;59256.41;5013740;28;45531;-75
2023/01/06 11:15:37;;;;;;;;;1.00;1.00;;;;;-146.50;100.00;59256.41;5011009;28;45621;-74
2023/01/06 11:18:04;;;;;;;;;4.00;1.00;;;;;-146.50;100.00;59256.41;5010028;28;46352;-74
2023/01/06 11:20:33;;;;;;;;;4.67;1.67;;;;;-146.50;100.00;59256.41;5059422;28;45647;-74
2023/01/06 11:23:21;;;;;;;;;2.00;2.00;;;;;-146.50;100.00;59256.41;5074755;27;45455;-74
2023/01/06 11:26:11;;;;;;;;;1.00;1.00;;;;;-146.50;100.00;59256.41;5074764;27;45349;-74